Nearby METAR Reports

 

EGEO - Oban, United Kingdom
Distance from station: SSW 18mi, 30km
Updated: 25/09/2018 12:20
Light rain, Drizzle, Mostly cloudy
Light rain, Drizzle, Mostly cloudy
 Wind from S
Wind: S 12 mph , 19 km/h
Temperature: 10°C
Wind Chill: 7°C
Dew Point: 7°C
Humidity: 82%
Barometer: 1028 hPa
Summary: Light rain, Drizzle
Clouds: Mostly cloudy
Visibility: 4 miles , 6 km
Cloud details: Few Clouds 122 m
Partly cloudy 457 m
Mostly cloudy 732 m
2018/09/25 11:20 EGEO 251120Z 17010KT 6000 -RADZ FEW004 SCT015 BKN024 10/07 Q1028
EGPU - Tiree, United Kingdom
Distance from station: WSW 64mi, 103km
Updated: 25/09/2018 12:20
Light rain, Mostly cloudy
Light rain, Mostly cloudy
 Wind from S
Wind: S 33 mph , 54 km/h, Gust: 45 mph , 72 km/h
Temperature: 10°C
Wind Chill: 6°C
Dew Point: 10°C
Humidity: 100%
Barometer: 1023 hPa
Summary: Light rain
Clouds: Mostly cloudy
Visibility: 3 miles , 5 km
Cloud details: Partly cloudy 213 m
Mostly cloudy 427 m
2018/09/25 11:20 EGPU 251120Z 18029G39KT 4800 -RA SCT007 BKN014 10/10 Q1023
EGPF - Glasgow, United Kingdom
Distance from station: SSE 66mi, 107km
Updated: 25/09/2018 12:20
Few Clouds
Few Clouds
 Wind from SSW
Wind: SSW 22 mph , 35 km/h, Gust: 36 mph , 57 km/h
Temperature: 12°C
Dew Point: 7°C
Humidity: 72%
Barometer: 1030 hPa
Clouds: Few Clouds
Visibility: 6 miles , 10 km
Cloud details: Few Clouds 914 m
2018/09/25 11:20 EGPF 251120Z AUTO 21019G31KT 9999 FEW030 12/07 Q1030
 
EGPE - Inverness, United Kingdom
Distance from station: NE 71mi, 114km
Updated: 25/09/2018 12:20
Few Clouds
Few Clouds
 Wind from SW
Wind: SW 37 mph , 59 km/h, Gust: 48 mph , 78 km/h
Temperature: 12°C
Dew Point: 4°C
Humidity: 58%
Barometer: 1023 hPa
Clouds: Few Clouds
Visibility: 6 miles , 10 km
Cloud details: Few Clouds 1372 m
2018/09/25 11:20 EGPE 251120Z 23032G42KT 9999 FEW045 12/04 Q1023
EGPI - Islay/Port Ellen, United Kingdom
Distance from station: SSW 81mi, 131km
Updated: 25/09/2018 12:20
Light rain, Partly cloudy
Light rain, Partly cloudy
 Wind from SSE
Wind: SSE 20 mph , 31 km/h
Temperature: 11°C
Dew Point: 8°C
Humidity: 82%
Barometer: 1027 hPa
Summary: Light rain
Clouds: Partly cloudy
Visibility: 6 miles , 10 km
Cloud details: Mostly cloudy 945 m
Partly cloudy 1158 m
2018/09/25 11:20 EGPI 251120Z 16017KT 120V190 9999 -RA BKN031 SCT038 11/08 Q1027
EGPN - Dundee/Riverside, United Kingdom
Distance from station: E 86mi, 138km
Updated: 25/09/2018 12:20
Light rain, Showers, Partly cloudy
Light rain, Showers, Partly cloudy
 Wind from SW
Wind: SW 23 mph , 37 km/h
Temperature: 13°C
Dew Point: 8°C
Humidity: 72%
Barometer: 1028 hPa
Summary: Light rain, Showers
Clouds: Partly cloudy
Visibility: 6 miles , 10 km
Cloud details: Partly cloudy 914 m
2018/09/25 11:20 EGPN 251120Z 23020KT 9999 -SHRA SCT030 13/08 Q1028
 
EGPK - Prestwick, United Kingdom
Distance from station: SSE 88mi, 141km
Updated: 25/09/2018 12:20
Few Clouds
Few Clouds
 Wind from SSW
Wind: SSW 23 mph , 37 km/h
Temperature: 13°C
Dew Point: 6°C
Humidity: 63%
Barometer: 1030 hPa
Clouds: Few Clouds
Visibility: 6 miles , 10 km
Cloud details: Few Clouds 823 m
2018/09/25 11:20 EGPK 251120Z 20020KT 9999 FEW027 13/06 Q1030
EGPH - Edinburgh, United Kingdom
Distance from station: SE 89mi, 143km
Updated: 25/09/2018 12:20
Few Clouds
Few Clouds
 Wind from SW
Wind: SW 24 mph , 39 km/h
Temperature: 14°C
Dew Point: 6°C
Humidity: 59%
Barometer: 1029 hPa
Clouds: Few Clouds
Visibility: 6 miles , 10 km
Cloud details: Few Clouds 1250 m
2018/09/25 11:20 EGPH 251120Z 23021KT 9999 FEW041 14/06 Q1029
EGQK - RAF Kinloss, United Kingdom
Distance from station: NE 90mi, 144km
Updated: 25/09/2018 11:50
Mostly cloudy
Mostly cloudy
 Wind from SSW
Wind: SSW 17 mph , 28 km/h
Temperature: 13°C
Dew Point: 4°C
Humidity: 55%
Barometer: 1024 hPa
Clouds: Mostly cloudy
Visibility: 6 miles , 10 km
Cloud details: Mostly cloudy 3048 m
2018/09/25 10:50 EGQK 251050Z AUTO 20015KT 9999 BKN100/// 13/04 Q1024
 
EGEC - Campbeltown, United Kingdom
Distance from station: S 90mi, 145km
Updated: 25/09/2018 12:20
Overcast
Overcast
 Wind from SSE
Wind: SSE 20 mph , 31 km/h
Temperature: 12°C
Dew Point: 7°C
Humidity: 72%
Barometer: 1028 hPa
Clouds: Overcast
Visibility: 6 miles , 10 km
Cloud details: Overcast 1494 m
2018/09/25 11:20 EGEC 251120Z 16017KT 9999 OVC049 12/07 Q1028
EGQA - Tain Range, United Kingdom
Distance from station: NNE 91mi, 146km
Updated: 25/09/2018 11:50
Mostly cloudy
Mostly cloudy
 Wind from SSW
Wind: SSW 25 mph , 41 km/h, Gust: 37 mph , 59 km/h
Clouds: Mostly cloudy
Visibility: 6 miles , 10 km
Cloud details: Few Clouds 518 m
Mostly cloudy 1829 m
2018/09/25 10:50 EGQA 251050Z 20022G32KT 9999 FEW017 BKN060 11/// Q1023 BLU
EGQL - RAF Leuchars, United Kingdom
Distance from station: ESE 93mi, 149km
Updated: 25/09/2018 11:50
Mostly cloudy
Mostly cloudy
 Wind from WSW
Wind: WSW 20 mph , 31 km/h
Temperature: 13°C
Dew Point: 7°C
Humidity: 67%
Barometer: 1029 hPa
Clouds: Mostly cloudy
Visibility: 6 miles , 10 km
Cloud details: Few Clouds 914 m
Mostly cloudy 3658 m
2018/09/25 10:50 EGQL 251050Z 24017KT 9999 FEW030 BKN120 13/07 Q1029 BLU
 
EGPL - Benbecula, United Kingdom
Distance from station: WNW 96mi, 154km
Updated: 25/09/2018 12:20
Light rain, Mostly cloudy
Light rain, Mostly cloudy
 Wind from SSW
Wind: SSW 35 mph , 56 km/h, Gust: 47 mph , 76 km/h
Temperature: 11°C
Dew Point: 10°C
Humidity: 94%
Barometer: 1019 hPa
Summary: Light rain
Clouds: Mostly cloudy
Visibility: 4 miles , 6 km
Cloud details: Partly cloudy 122 m
Mostly cloudy 152 m
2018/09/25 11:20 EGPL 251120Z 20030G41KT 6000 -RA SCT004 BKN005 11/10 Q1019
EGQS - RAF Lossiemouth, United Kingdom
Distance from station: NE 99mi, 160km
Updated: 25/09/2018 11:50
Mostly cloudy
Mostly cloudy
 Wind from SSW
Wind: SSW 17 mph , 28 km/h
Temperature: 12°C
Dew Point: 4°C
Humidity: 58%
Barometer: 1024 hPa
Clouds: Mostly cloudy
Visibility: 6 miles , 10 km
Cloud details: Few Clouds 914 m
Mostly cloudy 2438 m
Mostly cloudy 9144 m
2018/09/25 10:50 EGQS 251050Z 20015KT 9999 FEW030 BKN080 BKN300 12/04 Q1024 BLU TEMPO 24025G35KT BLU
EGPO - Stornoway, United Kingdom
Distance from station: NNW 111mi, 179km
Updated: 25/09/2018 12:20
Light rain, Mostly cloudy
Light rain, Mostly cloudy
 Wind from SSW
Wind: SSW 38 mph , 61 km/h
Temperature: 10°C
Wind Chill: 5°C
Dew Point: 9°C
Humidity: 94%
Barometer: 1018 hPa
Summary: Light rain
Clouds: Mostly cloudy
Visibility: 4 miles , 6 km
Cloud details: Partly cloudy 183 m
Mostly cloudy 244 m
Mostly cloudy 427 m
2018/09/25 11:20 EGPO 251120Z 20033KT 6000 -RA SCT006 BKN008 BKN014 10/09 Q1018
 
EGPD - Aberdeen/Dyce, United Kingdom
Distance from station: ENE 118mi, 190km
Updated: 25/09/2018 12:20
Clear
Clear
 Wind from SSW
Wind: SSW 24 mph , 39 km/h
Temperature: 12°C
Dew Point: 4°C
Humidity: 58%
Barometer: 1026 hPa
Clouds: Clear
Visibility: 6 miles , 10 km
2018/09/25 11:20 EGPD 251120Z AUTO 20021KT 9999 NCD 12/04 Q1026 NOSIG
EGAE - Eglinton/Londond, United Kingdom
Distance from station: SSW 138mi, 222km
Updated: 25/09/2018 12:20
Light rain, Partly cloudy
Light rain, Partly cloudy
 Wind from SSW
Wind: SSW 25 mph , 41 km/h, Gust: 41 mph , 67 km/h
Temperature: 12°C
Dew Point: 8°C
Humidity: 77%
Barometer: 1026 hPa
Summary: Light rain
Clouds: Partly cloudy
Visibility: 6 miles , 10 km
Cloud details: Few Clouds 762 m
Partly cloudy 1189 m
2018/09/25 11:20 EGAE 251120Z 21022G36KT 9999 -RA FEW025 SCT039 12/08 Q1026
EGPC - Wick, United Kingdom
Distance from station: NNE 144mi, 232km
Updated: 25/09/2018 12:20
Nearby showers, Few clouds
Nearby showers, Few clouds
 Wind from SSW
Wind: SSW 16 mph , 26 km/h
Temperature: 10°C
Wind Chill: 7°C
Dew Point: 7°C
Humidity: 82%
Barometer: 1022 hPa
Summary: Nearby Showers
Clouds: Few Clouds
Visibility: 6 miles , 10 km
Cloud details: Few Clouds 396 m
2018/09/25 11:20 EGPC 251120Z 21014KT 9999 VCSH FEW013 10/07 Q1022

Metar display script from Saratoga-Weather.org